< < Back
Terminal Aerodrome Forecast


Current Version              Previous Versions:   1  2  3  4  5  6  7  8  9  

Terminal Aerodrome Forecast

544
FTUS44 KMRX 011720
TAFCHA
TAF
KCHA 011720Z 0118/0218 VRB03KT P6SM VCSH BKN040
     FM020000 00000KT P6SM SCT040
     FM021500 05005KT P6SM BKN050=



Latest METAR

320
SAUS80 KWBC 020000
MTRCHA
METAR KCHA 012353Z 34007KT 10SM SCT055 BKN095 BKN120 BKN200 28/18 A3002
RMK AO2 SLP160 T02780183 10311 20278 53001


USA.gov is the U.S. government's official web portal to all federal, state and local government web resources and services.